Time;durP1;ratioP1;P1;durP2;ratioP2;P2;SDS_P1;SDS_P2;PMS_P1;PMS_P2;Temp;Humidity;BMP_temperature;BMP_pressure;BME280_temperature;BME280_humidity;BME280_pressure;Samples;Min_cycle;Max_cycle;Signal;HPM_P1;HPM_P2
2022/03/30 00:05:09;;;;;;;32.00;21.10;;;;;;;10.05;55.50;98856.63;10277361;28;20055;-75
2022/03/30 00:10:11;;;;;;;33.75;22.38;;;;;;;10.20;55.72;98862.47;10253374;28;20201;-75
2022/03/30 00:15:14;;;;;;;38.95;26.10;;;;;;;10.23;56.08;98865.69;10281093;28;20069;-75
2022/03/30 00:20:17;;;;;;;36.22;23.35;;;;;;;9.97;53.62;98863.34;10275471;28;20051;-75
2022/03/30 00:25:20;;;;;;;34.30;24.88;;;;;;;9.69;53.44;98851.47;10274792;28;20521;-75
2022/03/30 00:30:22;;;;;;;38.63;26.58;;;;;;;9.44;54.72;98844.56;10286397;28;20063;-74
2022/03/30 00:35:24;;;;;;;38.38;25.10;;;;;;;9.49;56.09;98839.03;10266680;28;20097;-75
2022/03/30 00:40:26;;;;;;;38.05;24.70;;;;;;;9.46;55.95;98839.25;10286521;28;20105;-75
2022/03/30 00:45:28;;;;;;;41.58;26.95;;;;;;;9.31;55.01;98833.38;10274844;28;20078;-75
2022/03/30 00:50:30;;;;;;;37.65;27.02;;;;;;;9.25;54.79;98828.59;10266734;28;20138;-75
2022/03/30 00:55:33;;;;;;;40.75;27.65;;;;;;;9.11;54.66;98828.75;10273365;28;20420;-74
2022/03/30 01:00:34;;;;;;;44.55;29.75;;;;;;;9.02;55.58;98825.94;10282659;28;20055;-74
2022/03/30 01:05:36;;;;;;;43.60;28.52;;;;;;;9.14;56.53;98831.13;10288177;28;20160;-74
2022/03/30 01:10:38;;;;;;;39.63;28.23;;;;;;;9.06;55.51;98816.94;10275896;28;20054;-75
2022/03/30 01:15:40;;;;;;;40.67;26.55;;;;;;;8.90;54.95;98805.94;10293287;28;20129;-74
2022/03/30 01:20:49;;;;;;;40.78;28.20;;;;;;;8.73;56.69;98800.13;10293401;28;20576;-75
2022/03/30 01:25:51;;;;;;;45.63;28.95;;;;;;;8.81;56.34;98797.81;10282833;28;20058;-75
2022/03/30 01:36:17;;;;;;;43.58;28.85;;;;;;;8.94;56.79;98782.16;10278744;28;20496;-75
2022/03/30 01:41:19;;;;;;;44.45;29.98;;;;;;;8.89;56.93;98779.06;10255359;28;20444;-75
2022/03/30 01:46:22;;;;;;;46.03;29.23;;;;;;;9.07;55.85;98767.31;10279530;28;20059;-75
2022/03/30 01:51:24;;;;;;;41.53;28.35;;;;;;;9.17;55.26;98773.53;10264380;28;20050;-75
2022/03/30 01:56:25;;;;;;;41.85;26.52;;;;;;;9.05;54.97;98773.56;10285807;28;20808;-75
2022/03/30 02:01:27;;;;;;;39.17;26.83;;;;;;;9.07;55.13;98769.06;10282556;28;20158;-74
2022/03/30 02:06:29;;;;;;;38.67;27.25;;;;;;;9.14;55.40;98758.09;10258483;28;20102;-75
2022/03/30 02:11:32;;;;;;;39.78;27.98;;;;;;;9.18;55.10;98753.50;10282504;28;20109;-75
2022/03/30 02:16:34;;;;;;;41.20;27.30;;;;;;;9.09;54.58;98749.78;10276351;28;20051;-75
2022/03/30 02:21:36;;;;;;;46.33;29.02;;;;;;;9.23;56.28;98754.81;10279861;28;20043;-74
2022/03/30 02:26:38;;;;;;;43.30;28.42;;;;;;;9.24;56.21;98759.06;10280893;28;20516;-75
2022/03/30 02:31:41;;;;;;;48.47;29.85;;;;;;;9.19;56.22;98755.16;10274556;28;20481;-75
2022/03/30 02:36:45;;;;;;;42.85;29.25;;;;;;;9.29;56.55;98743.94;10291662;28;20050;-75
2022/03/30 02:41:47;;;;;;;41.30;29.45;;;;;;;9.34;56.15;98741.81;10266717;28;20467;-75
2022/03/30 02:46:49;;;;;;;47.90;33.47;;;;;;;9.30;57.15;98735.16;10286001;28;20075;-75
2022/03/30 02:51:51;;;;;;;39.83;28.45;;;;;;;9.03;56.57;98737.19;10289732;28;20405;-75
2022/03/30 02:56:53;;;;;;;42.25;29.08;;;;;;;8.95;56.04;98731.69;10304608;28;20249;-74
2022/03/30 03:01:58;;;;;;;45.72;29.92;;;;;;;8.84;56.64;98718.56;10276349;28;20059;-75
2022/03/30 03:07:00;;;;;;;46.58;29.73;;;;;;;8.87;57.48;98723.59;10285411;28;20061;-75
2022/03/30 03:12:02;;;;;;;41.95;28.80;;;;;;;8.92;56.51;98723.22;10282449;28;20571;-74
2022/03/30 03:17:04;;;;;;;41.10;29.02;;;;;;;8.62;57.15;98718.44;10265802;28;20074;-75
2022/03/30 03:22:06;;;;;;;40.28;28.02;;;;;;;8.35;56.69;98712.56;10281617;28;20440;-75
2022/03/30 03:27:08;;;;;;;42.42;29.38;;;;;;;8.26;57.89;98706.22;10269129;28;20050;-75
2022/03/30 03:32:09;;;;;;;46.17;29.48;;;;;;;8.24;57.37;98704.69;10282360;28;20137;-75
2022/03/30 03:37:11;;;;;;;48.45;31.13;;;;;;;8.06;58.37;98703.31;10282471;28;20133;-74
2022/03/30 03:42:13;;;;;;;42.50;29.25;;;;;;;7.88;58.84;98710.59;10270321;28;20492;-75
2022/03/30 03:47:15;;;;;;;51.22;32.58;;;;;;;7.80;59.06;98707.69;10282022;28;20137;-74
2022/03/30 03:52:17;;;;;;;52.40;32.05;;;;;;;7.68;60.14;98709.34;10297723;28;20145;-74
2022/03/30 03:57:18;;;;;;;48.35;32.75;;;;;;;7.78;59.56;98710.38;10273418;28;20086;-74
2022/03/30 04:02:20;;;;;;;49.75;33.28;;;;;;;7.78;59.60;98699.97;10287759;28;20121;-74
2022/03/30 04:07:23;;;;;;;61.05;37.55;;;;;;;7.85;60.41;98690.81;10265713;28;20162;-74
2022/03/30 04:12:25;;;;;;;53.08;33.30;;;;;;;7.76;60.36;98691.44;10269908;28;20535;-74
2022/03/30 04:17:27;;;;;;;48.50;33.75;;;;;;;7.59;60.67;98690.94;10265013;28;20084;-74
2022/03/30 04:22:29;;;;;;;54.13;35.05;;;;;;;7.59;60.83;98689.13;10289921;28;20437;-74
2022/03/30 04:27:31;;;;;;;50.13;33.33;;;;;;;7.71;61.38;98682.28;10264743;28;20133;-74
2022/03/30 04:32:32;;;;;;;53.08;33.50;;;;;;;7.88;60.56;98680.19;10309200;28;20070;-74
2022/03/30 04:37:35;;;;;;;52.13;34.55;;;;;;;7.82;60.43;98675.41;10277936;28;20468;-74
2022/03/30 04:42:36;;;;;;;55.75;34.65;;;;;;;7.77;60.93;98682.69;10271150;28;20051;-74
2022/03/30 04:47:38;;;;;;;52.10;32.80;;;;;;;7.74;60.63;98682.06;10271710;28;20485;-74
2022/03/30 04:52:41;;;;;;;49.92;32.92;;;;;;;7.84;60.43;98681.34;10272172;28;20121;-74
2022/03/30 04:57:42;;;;;;;51.50;32.95;;;;;;;7.74;60.48;98676.84;10280502;28;20968;-74
2022/03/30 05:02:44;;;;;;;45.92;31.60;;;;;;;7.75;60.72;98673.34;10264741;28;20058;-75
2022/03/30 05:07:46;;;;;;;47.90;31.48;;;;;;;7.77;60.88;98671.47;10268621;28;20161;-74
2022/03/30 05:12:48;;;;;;;55.55;34.75;;;;;;;7.89;60.55;98681.88;10276766;28;20137;-74
2022/03/30 05:17:50;;;;;;;46.38;30.73;;;;;;;7.84;59.99;98678.75;10272768;28;20090;-74
2022/03/30 05:22:52;;;;;;;48.13;31.27;;;;;;;7.61;60.11;98683.84;10269162;28;20416;-74
2022/03/30 05:27:54;;;;;;;48.78;32.85;;;;;;;7.51;61.09;98681.00;10273332;28;20054;-75
2022/03/30 05:32:56;;;;;;;46.38;31.70;;;;;;;7.52;60.67;98679.25;10283228;28;20058;-74
2022/03/30 05:37:58;;;;;;;50.53;31.60;;;;;;;7.37;61.08;98673.28;10272157;28;20080;-74
2022/03/30 05:43:00;;;;;;;59.97;35.55;;;;;;;7.46;61.21;98679.66;10272229;28;20137;-74
2022/03/30 05:48:02;;;;;;;58.13;35.33;;;;;;;7.68;61.22;98678.13;10276374;28;20051;-74
2022/03/30 05:53:06;;;;;;;57.00;34.90;;;;;;;7.81;61.21;98678.94;10273398;28;20058;-74
2022/03/30 05:58:08;;;;;;;54.90;34.33;;;;;;;7.99;61.27;98677.69;10273126;28;20117;-75
2022/03/30 06:03:12;;;;;;;50.78;33.78;;;;;;;7.88;60.97;98677.59;10283099;28;20161;-74
2022/03/30 06:08:14;;;;;;;58.17;35.75;;;;;;;7.82;61.35;98684.97;10277260;28;20061;-74
2022/03/30 06:13:15;;;;;;;67.45;39.35;;;;;;;7.82;61.84;98680.63;10273316;28;20113;-75
2022/03/30 06:18:18;;;;;;;61.22;36.55;;;;;;;7.87;61.52;98670.75;10275588;28;20054;-74
2022/03/30 06:23:20;;;;;;;57.95;36.22;;;;;;;7.79;61.45;98680.00;10276962;28;20057;-75
2022/03/30 06:28:26;;;;;;;67.22;39.47;;;;;;;7.88;61.47;98684.56;10304551;28;20054;-74
2022/03/30 06:33:29;;;;;;;64.05;38.35;;;;;;;7.96;61.61;98680.50;10293070;28;20054;-74
2022/03/30 06:38:31;;;;;;;65.18;37.72;;;;;;;8.08;61.50;98688.41;10292787;28;20061;-74
2022/03/30 06:43:34;;;;;;;55.72;34.03;;;;;;;8.10;60.78;98689.97;10270206;28;20214;-74
2022/03/30 06:48:36;;;;;;;54.15;35.05;;;;;;;8.09;61.38;98682.25;10283613;28;20097;-74
2022/03/30 06:53:39;;;;;;;61.55;37.35;;;;;;;8.16;60.56;98683.53;10290655;28;21151;-74
2022/03/30 06:58:41;;;;;;;57.33;36.15;;;;;;;8.13;60.49;98675.94;10277549;28;20051;-74
2022/03/30 07:03:42;;;;;;;64.75;38.30;;;;;;;8.14;60.92;98677.59;10275095;28;20055;-74
2022/03/30 07:14:06;;;;;;;60.05;35.65;;;;;;;8.36;60.85;98664.75;10277316;28;20105;-76
2022/03/30 07:19:08;;;;;;;52.63;35.53;;;;;;;9.08;59.60;98669.84;10280340;28;20050;-76
2022/03/30 07:24:10;;;;;;;45.53;31.48;;;;;;;9.04;58.83;98673.63;10249059;28;20460;-77
2022/03/30 07:29:12;;;;;;;48.25;32.03;;;;;;;8.61;59.21;98664.63;10266385;28;20457;-77
2022/03/30 07:34:15;;;;;;;46.85;32.88;;;;;;;8.66;59.15;98663.38;10273166;28;20929;-76
2022/03/30 07:39:17;;;;;;;42.85;30.25;;;;;;;8.67;58.79;98670.25;10285641;28;20138;-77
2022/03/30 07:44:19;;;;;;;43.15;29.42;;;;;;;8.63;58.87;98657.53;10272165;28;20051;-77
2022/03/30 07:49:21;;;;;;;41.97;28.98;;;;;;;8.67;58.74;98659.81;10270327;28;20042;-76
2022/03/30 07:54:23;;;;;;;41.45;29.08;;;;;;;8.16;58.88;98667.91;10287666;28;20062;-76
2022/03/30 07:59:25;;;;;;;38.60;28.10;;;;;;;8.16;59.12;98671.31;10279469;28;20053;-77
2022/03/30 08:04:27;;;;;;;39.47;27.30;;;;;;;8.27;58.60;98665.38;10281909;28;20132;-76
2022/03/30 08:09:29;;;;;;;41.20;28.90;;;;;;;8.73;59.00;98654.16;10274899;28;20054;-77
2022/03/30 08:14:31;;;;;;;40.67;27.88;;;;;;;9.08;57.66;98664.63;10276198;28;20508;-77
2022/03/30 08:19:32;;;;;;;37.78;26.38;;;;;;;9.35;56.77;98646.94;10281639;28;20121;-77
2022/03/30 08:24:34;;;;;;;40.63;26.17;;;;;;;8.97;55.74;98648.97;10281691;28;20516;-77
2022/03/30 08:29:38;;;;;;;35.90;24.38;;;;;;;9.22;56.08;98646.19;10282852;28;20050;-77
2022/03/30 08:34:41;;;;;;;37.88;25.73;;;;;;;9.55;54.52;98648.03;10267771;28;20413;-77
2022/03/30 08:39:44;;;;;;;38.83;26.70;;;;;;;9.44;54.95;98641.00;10278004;28;20136;-77
2022/03/30 08:44:47;;;;;;;36.28;25.45;;;;;;;9.46;54.79;98638.31;10281688;28;21108;-77
2022/03/30 08:49:50;;;;;;;37.00;26.48;;;;;;;9.58;55.30;98648.63;10289667;28;20039;-77
2022/03/30 08:54:52;;;;;;;33.17;24.95;;;;;;;9.57;54.57;98651.38;10263004;28;20058;-77
2022/03/30 09:00:02;;;;;;;31.67;22.98;;;;;;;9.85;53.93;98650.16;10276629;28;20121;-77
2022/03/30 09:05:19;;;;;;;32.90;24.17;;;;;;;9.53;54.20;98656.00;10286557;28;20085;-77
2022/03/30 09:10:22;;;;;;;35.20;24.58;;;;;;;9.53;54.91;98656.00;10270375;28;20137;-76
2022/03/30 09:15:25;;;;;;;32.83;23.77;;;;;;;9.68;54.26;98647.97;10274720;28;20094;-76
2022/03/30 09:20:28;;;;;;;33.85;24.58;;;;;;;9.88;54.21;98644.66;10281767;28;20141;-77
2022/03/30 09:25:32;;;;;;;31.73;23.08;;;;;;;9.89;53.06;98644.53;10273855;28;20062;-77
2022/03/30 09:30:33;;;;;;;34.00;24.00;;;;;;;10.66;53.00;98632.34;10287757;28;20128;-76
2022/03/30 09:35:38;;;;;;;31.67;22.55;;;;;;;11.08;51.26;98627.09;10284317;28;20046;-77
2022/03/30 09:40:43;;;;;;;32.55;22.42;;;;;;;11.66;51.29;98617.81;10285542;28;20114;-78
2022/03/30 09:45:47;;;;;;;30.80;20.80;;;;;;;11.92;48.36;98611.19;10259818;28;20055;-76
2022/03/30 09:50:54;;;;;;;28.15;20.35;;;;;;;12.01;48.06;98609.53;10287037;28;20504;-77
2022/03/30 09:56:05;;;;;;;32.20;18.55;;;;;;;11.29;46.26;98608.78;10287948;28;20174;-76
2022/03/30 10:01:09;;;;;;;28.35;18.35;;;;;;;11.51;48.41;98610.41;10279878;28;20081;-77
2022/03/30 10:06:14;;;;;;;28.80;19.30;;;;;;;11.38;47.48;98604.56;10271801;28;20051;-77
2022/03/30 10:11:17;;;;;;;27.67;19.52;;;;;;;11.57;47.27;98600.28;10283298;28;20452;-77
2022/03/30 10:16:28;;;;;;;24.77;18.33;;;;;;;12.05;45.82;98593.44;10288006;28;20095;-77
2022/03/30 10:28:08;;;;;;;29.35;19.10;;;;;;;12.22;44.81;98586.72;10276258;28;20568;-77
2022/03/30 10:33:11;;;;;;;28.45;19.13;;;;;;;12.67;45.93;98580.06;10280130;28;20161;-77
2022/03/30 10:38:15;;;;;;;24.13;17.48;;;;;;;12.50;43.63;98572.03;10285832;28;20063;-77
2022/03/30 10:43:25;;;;;;;25.77;17.48;;;;;;;12.40;43.25;98564.16;10275430;28;20058;-77
2022/03/30 10:48:31;;;;;;;24.90;18.48;;;;;;;12.28;44.43;98559.13;10262970;28;20069;-77
2022/03/30 10:53:35;;;;;;;27.38;17.85;;;;;;;11.95;43.84;98558.50;10276374;28;20152;-77
2022/03/30 10:59:00;;;;;;;24.38;16.17;;;;;;;11.53;43.62;98558.75;10277511;28;20053;-77
2022/03/30 11:04:04;;;;;;;24.77;16.30;;;;;;;11.63;43.52;98559.63;10284646;28;20657;-77
2022/03/30 11:09:09;;;;;;;23.17;15.75;;;;;;;11.84;43.14;98549.94;10283604;28;20078;-78
2022/03/30 11:14:28;;;;;;;26.05;16.92;;;;;;;12.05;44.12;98543.66;10260882;28;20058;-76
2022/03/30 11:19:55;;;;;;;22.30;16.10;;;;;;;12.38;43.07;98539.03;10274093;28;20069;-77
2022/03/30 11:25:13;;;;;;;21.58;15.88;;;;;;;12.30;43.49;98531.84;10273258;28;20059;-77
2022/03/30 11:30:17;;;;;;;26.08;16.58;;;;;;;12.55;42.06;98531.34;10279688;28;20043;-77
2022/03/30 11:35:21;;;;;;;22.55;14.40;;;;;;;12.08;42.26;98519.81;10275802;28;20051;-77
2022/03/30 11:40:24;;;;;;;24.17;15.13;;;;;;;12.24;43.54;98510.56;10275840;28;20059;-77
2022/03/30 11:45:29;;;;;;;24.90;15.40;;;;;;;12.36;41.78;98510.34;10283635;28;20055;-77
2022/03/30 11:50:44;;;;;;;24.35;15.38;;;;;;;12.51;42.57;98508.97;10281495;28;20077;-77
2022/03/30 11:55:56;;;;;;;24.27;15.85;;;;;;;12.23;40.69;98512.38;10279750;28;20492;-77
2022/03/30 12:01:00;;;;;;;24.00;14.95;;;;;;;12.45;41.66;98504.28;10291092;28;20046;-77
2022/03/30 12:06:04;;;;;;;25.73;16.08;;;;;;;12.61;41.80;98494.06;10271641;28;20149;-77
2022/03/30 12:11:06;;;;;;;20.58;14.88;;;;;;;12.21;41.88;98495.97;10280758;28;20058;-76
2022/03/30 12:16:12;;;;;;;22.33;14.80;;;;;;;12.29;41.43;98493.53;10284909;28;20070;-77
2022/03/30 12:21:22;;;;;;;25.48;15.05;;;;;;;12.40;42.07;98485.50;10268034;28;20074;-77
2022/03/30 12:26:25;;;;;;;22.20;15.07;;;;;;;12.58;41.31;98491.72;10281611;28;20428;-77
2022/03/30 12:31:57;;;;;;;22.95;14.85;;;;;;;12.77;40.47;98473.34;10277177;28;20140;-77
2022/03/30 12:37:02;;;;;;;22.38;14.95;;;;;;;12.89;39.85;98469.59;10286650;28;20055;-77
2022/03/30 12:42:11;;;;;;;24.38;15.27;;;;;;;13.21;40.15;98458.72;10257918;28;20073;-77
2022/03/30 12:47:34;;;;;;;26.55;15.75;;;;;;;13.36;40.38;98444.16;10280236;28;20273;-77
2022/03/30 12:52:43;;;;;;;20.85;14.98;;;;;;;13.36;38.11;98438.91;10282976;28;20065;-77
2022/03/30 12:57:56;;;;;;;21.85;15.32;;;;;;;13.55;40.02;98427.50;10290645;28;20054;-77
2022/03/30 13:03:25;;;;;;;22.70;14.38;;;;;;;13.99;36.57;98417.94;10289278;28;20094;-77
2022/03/30 13:08:27;;;;;;;23.15;14.80;;;;;;;13.87;38.34;98412.09;10274083;28;20054;-77
2022/03/30 13:13:31;;;;;;;25.52;15.90;;;;;;;14.17;38.94;98390.69;10282597;28;20121;-77
2022/03/30 13:18:36;;;;;;;21.58;14.48;;;;;;;14.24;38.89;98385.66;10287224;28;20058;-77
2022/03/30 13:23:49;;;;;;;23.30;15.75;;;;;;;14.37;36.42;98380.84;10287108;28;20137;-77
2022/03/30 13:28:51;;;;;;;21.30;14.38;;;;;;;14.39;36.96;98377.06;10281333;28;20050;-77
2022/03/30 13:33:55;;;;;;;19.15;13.45;;;;;;;14.58;37.40;98369.03;10282439;28;20062;-77
2022/03/30 13:38:57;;;;;;;21.90;14.25;;;;;;;14.54;37.07;98366.84;10284174;28;20474;-77
2022/03/30 13:44:04;;;;;;;21.13;13.30;;;;;;;14.66;35.24;98359.50;10289491;28;20074;-77
2022/03/30 13:49:06;;;;;;;21.67;15.48;;;;;;;14.57;36.21;98356.03;10271892;28;20452;-78
2022/03/30 13:54:58;;;;;;;23.65;14.38;;;;;;;14.85;36.30;98344.34;10293912;28;20580;-77
2022/03/30 14:00:01;;;;;;;22.25;14.88;;;;;;;14.82;36.25;98344.63;10266098;28;20069;-78
2022/03/30 14:05:04;;;;;;;21.48;14.32;;;;;;;14.86;36.14;98337.28;10290181;28;20140;-77
2022/03/30 14:10:06;;;;;;;21.17;12.52;;;;;;;14.97;36.01;98331.72;10286668;28;20053;-77
2022/03/30 14:15:08;;;;;;;19.95;13.45;;;;;;;14.64;35.05;98332.53;10277751;28;20090;-77
2022/03/30 14:20:11;;;;;;;21.23;14.38;;;;;;;14.52;35.90;98330.19;10286627;28;20102;-77
2022/03/30 14:25:14;;;;;;;23.45;14.20;;;;;;;14.37;35.72;98325.63;10274864;28;20073;-77
2022/03/30 14:30:17;;;;;;;20.27;13.18;;;;;;;14.53;36.16;98316.03;10282004;28;20055;-77
2022/03/30 14:35:19;;;;;;;18.70;12.93;;;;;;;14.57;35.98;98316.56;10284873;28;20082;-77
2022/03/30 14:40:22;;;;;;;22.15;13.60;;;;;;;14.26;36.52;98320.59;10285099;28;20061;-77
2022/03/30 14:45:24;;;;;;;21.10;13.98;;;;;;;14.13;36.63;98305.22;10289293;28;20140;-77
2022/03/30 14:50:26;;;;;;;20.70;13.52;;;;;;;14.12;36.33;98306.19;10269518;28;20058;-77
2022/03/30 14:55:28;;;;;;;19.13;13.25;;;;;;;14.25;36.22;98303.16;10270758;28;20432;-77
2022/03/30 15:00:30;;;;;;;21.33;14.13;;;;;;;14.18;36.13;98300.34;10262399;28;20173;-77
2022/03/30 15:05:32;;;;;;;20.02;13.57;;;;;;;13.89;35.71;98296.31;10288169;28;20116;-78
2022/03/30 15:10:35;;;;;;;20.08;13.05;;;;;;;13.76;35.84;98292.25;10294229;28;20058;-78
2022/03/30 15:15:37;;;;;;;17.75;12.65;;;;;;;13.34;36.05;98293.81;10279657;28;20082;-78
2022/03/30 15:20:39;;;;;;;20.08;11.88;;;;;;;13.40;37.12;98292.38;10282042;28;20912;-77
2022/03/30 15:25:41;;;;;;;19.33;12.65;;;;;;;13.44;37.11;98288.50;10282400;28;20145;-78
2022/03/30 15:30:45;;;;;;;21.73;14.20;;;;;;;13.35;37.20;98284.94;10279481;28;20444;-78
2022/03/30 15:35:48;;;;;;;20.88;14.00;;;;;;;13.10;37.76;98282.22;10287696;28;20075;-78
2022/03/30 15:40:50;;;;;;;21.25;13.52;;;;;;;13.17;38.09;98278.84;10262653;28;20082;-78
2022/03/30 15:45:51;;;;;;;24.30;13.63;;;;;;;13.23;38.17;98277.44;10258866;28;20168;-78
2022/03/30 15:50:54;;;;;;;21.90;14.48;;;;;;;12.98;37.84;98280.75;10276154;28;20054;-78
2022/03/30 15:55:57;;;;;;;21.48;13.63;;;;;;;12.88;37.60;98286.88;10279982;28;20081;-78
2022/03/30 16:00:59;;;;;;;22.70;14.32;;;;;;;12.96;38.89;98279.09;10284236;28;20129;-78
2022/03/30 16:06:01;;;;;;;18.90;13.95;;;;;;;13.04;38.97;98272.31;10266105;28;20074;-78
2022/03/30 16:16:26;;;;;;;20.83;13.88;;;;;;;13.17;39.10;98270.16;10286528;28;20146;-78
2022/03/30 16:21:29;;;;;;;22.13;14.85;;;;;;;12.96;39.48;98273.03;10269219;28;20937;-78
2022/03/30 16:26:32;;;;;;;21.52;14.48;;;;;;;12.82;38.95;98276.97;10276109;28;20241;-78
2022/03/30 16:31:35;;;;;;;21.08;14.13;;;;;;;12.81;39.54;98275.31;10283042;28;20607;-78
2022/03/30 16:36:38;;;;;;;21.35;13.93;;;;;;;12.79;39.89;98276.44;10281150;28;20165;-78
2022/03/30 16:41:40;;;;;;;21.42;14.38;;;;;;;12.81;40.48;98271.88;10287301;28;20058;-78
2022/03/30 16:46:43;;;;;;;20.15;14.73;;;;;;;12.68;40.19;98284.50;10283467;28;20409;-78
2022/03/30 16:51:46;;;;;;;23.05;15.15;;;;;;;12.46;40.43;98280.44;10282141;28;20402;-78
2022/03/30 16:56:53;;;;;;;20.67;14.05;;;;;;;12.32;41.71;98275.66;10285973;28;20464;-77
2022/03/30 17:01:55;;;;;;;19.15;13.75;;;;;;;12.22;41.03;98274.81;10285419;28;20540;-77
2022/03/30 17:06:57;;;;;;;23.40;14.35;;;;;;;12.27;40.15;98269.16;10280016;28;20802;-77
2022/03/30 17:11:59;;;;;;;21.52;14.27;;;;;;;12.27;40.02;98275.25;10288478;28;20445;-77
2022/03/30 17:17:02;;;;;;;23.88;14.45;;;;;;;12.21;39.80;98278.44;10282219;28;20558;-77
2022/03/30 17:22:05;;;;;;;24.17;13.70;;;;;;;12.10;40.38;98268.94;10283512;28;20054;-77
2022/03/30 17:27:07;;;;;;;21.15;13.77;;;;;;;11.97;40.08;98278.88;10286977;28;20149;-77
2022/03/30 17:32:09;;;;;;;21.20;13.85;;;;;;;11.82;40.42;98284.69;10276031;28;20246;-77
2022/03/30 17:37:14;;;;;;;20.58;14.07;;;;;;;11.68;40.50;98282.50;10264994;28;20102;-77
2022/03/30 17:42:23;;;;;;;21.00;13.48;;;;;;;11.53;41.29;98276.00;10281172;28;20082;-77
2022/03/30 17:47:25;;;;;;;20.80;12.77;;;;;;;11.34;41.49;98286.47;10283902;28;20054;-77
2022/03/30 17:52:27;;;;;;;21.67;12.90;;;;;;;11.19;41.70;98292.06;10271456;28;20055;-77
2022/03/30 17:57:30;;;;;;;20.48;13.43;;;;;;;11.00;42.03;98292.03;10272821;28;20148;-77
2022/03/30 18:02:34;;;;;;;20.65;13.25;;;;;;;10.76;42.76;98301.16;10277041;28;20051;-77
2022/03/30 18:07:36;;;;;;;21.60;13.98;;;;;;;10.54;43.78;98296.97;10282215;28;20448;-77
2022/03/30 18:12:38;;;;;;;19.10;13.40;;;;;;;10.39;44.17;98303.47;10290482;28;20050;-77
2022/03/30 18:17:41;;;;;;;22.08;13.95;;;;;;;10.21;44.78;98300.63;10272607;28;20567;-77
2022/03/30 18:22:45;;;;;;;21.92;13.95;;;;;;;10.01;44.71;98305.84;10280776;28;20101;-78
2022/03/30 18:27:47;;;;;;;21.85;14.77;;;;;;;9.92;44.71;98310.06;10289628;28;20086;-77
2022/03/30 18:32:49;;;;;;;22.20;15.60;;;;;;;9.88;44.81;98307.81;10285090;28;20870;-77
2022/03/30 18:37:51;;;;;;;24.48;15.65;;;;;;;9.86;44.70;98307.13;10287344;28;20133;-74
2022/03/30 18:42:52;;;;;;;19.58;14.60;;;;;;;9.83;44.79;98310.00;10280031;28;20086;-74
2022/03/30 18:47:54;;;;;;;23.83;14.95;;;;;;;9.73;45.07;98309.91;10251843;28;20050;-74
2022/03/30 18:53:16;;;;;;;22.58;16.40;;;;;;;9.65;45.16;98310.50;10266440;28;20498;-74
2022/03/30 18:58:18;;;;;;;27.33;16.67;;;;;;;9.57;45.24;98312.91;10266812;28;20386;-74
2022/03/30 19:03:23;;;;;;;24.05;16.40;;;;;;;9.40;45.64;98318.66;10266165;28;20109;-74
2022/03/30 19:08:26;;;;;;;23.40;16.60;;;;;;;9.34;45.78;98315.72;10273233;28;20063;-74
2022/03/30 19:13:28;;;;;;;20.65;15.57;;;;;;;9.35;46.01;98323.41;10266241;28;20109;-74
2022/03/30 19:18:30;;;;;;;22.50;16.40;;;;;;;9.25;47.12;98322.50;10281066;28;20050;-74
2022/03/30 19:23:32;;;;;;;22.70;15.82;;;;;;;9.22;47.63;98330.56;10272340;28;20051;-74
2022/03/30 19:28:34;;;;;;;24.02;16.10;;;;;;;9.19;46.59;98328.22;10266000;28;20133;-74
2022/03/30 19:33:37;;;;;;;23.13;15.73;;;;;;;9.17;46.45;98334.50;10264119;28;20073;-75
2022/03/30 19:38:39;;;;;;;25.58;17.00;;;;;;;9.08;46.61;98341.25;10271023;28;20141;-74
2022/03/30 19:43:41;;;;;;;23.45;15.60;;;;;;;9.15;46.74;98350.25;10271536;28;20070;-74
2022/03/30 19:48:43;;;;;;;25.02;17.98;;;;;;;8.98;47.22;98350.75;10255785;28;20501;-74
2022/03/30 19:53:45;;;;;;;23.50;17.48;;;;;;;8.83;47.58;98344.13;10265248;28;20109;-74
2022/03/30 19:58:47;;;;;;;24.13;17.25;;;;;;;8.62;47.93;98345.78;10279815;28;20582;-74
2022/03/30 20:03:48;;;;;;;25.90;17.60;;;;;;;8.47;48.31;98349.53;10276766;28;20113;-74
2022/03/30 20:08:51;;;;;;;23.60;16.85;;;;;;;8.50;48.11;98352.78;10275672;28;20058;-74
2022/03/30 20:13:53;;;;;;;25.80;18.10;;;;;;;8.74;48.75;98355.25;10271585;28;20401;-74
2022/03/30 20:18:55;;;;;;;25.25;17.02;;;;;;;8.82;47.92;98351.13;10283382;28;20059;-74
2022/03/30 20:23:57;;;;;;;26.70;17.63;;;;;;;8.74;47.83;98352.66;10279898;28;20945;-74
2022/03/30 20:28:59;;;;;;;25.02;18.20;;;;;;;8.59;48.11;98354.66;10279437;28;20050;-74
2022/03/30 20:34:01;;;;;;;29.92;19.73;;;;;;;8.57;48.41;98355.72;10284984;28;20145;-74
2022/03/30 20:39:03;;;;;;;29.45;19.15;;;;;;;8.59;48.64;98364.25;10267395;28;20078;-74
2022/03/30 20:44:14;;;;;;;26.92;18.45;;;;;;;8.62;48.64;98356.22;10272315;28;20142;-74
2022/03/30 20:49:16;;;;;;;25.85;18.77;;;;;;;8.66;48.67;98349.81;10267323;28;20496;-74
2022/03/30 20:54:19;;;;;;;28.95;18.55;;;;;;;8.82;48.71;98350.28;10276671;28;20082;-74
2022/03/30 20:59:20;;;;;;;26.85;19.05;;;;;;;8.96;48.76;98351.81;10277238;28;20404;-74
2022/03/30 21:04:22;;;;;;;28.75;19.05;;;;;;;9.08;49.11;98351.69;10271730;28;20429;-74
2022/03/30 21:09:24;;;;;;;25.40;16.88;;;;;;;9.11;48.84;98351.47;10269953;28;20093;-74
2022/03/30 21:14:30;;;;;;;24.20;17.35;;;;;;;9.15;48.42;98347.66;10299826;28;20460;-74
2022/03/30 21:19:32;;;;;;;24.92;17.67;;;;;;;9.27;48.46;98341.47;10276177;28;20075;-74
2022/03/30 21:24:36;;;;;;;25.55;18.00;;;;;;;9.25;49.08;98332.94;10284009;28;20445;-74
2022/03/30 21:29:38;;;;;;;27.88;18.70;;;;;;;9.23;49.09;98340.06;10268922;28;20193;-74
2022/03/30 21:34:40;;;;;;;26.08;18.25;;;;;;;9.13;49.03;98336.50;10284031;28;20140;-74
2022/03/30 21:39:46;;;;;;;25.77;18.23;;;;;;;9.00;48.93;98333.19;10279309;28;21114;-74
2022/03/30 21:44:47;;;;;;;24.88;18.08;;;;;;;8.91;48.78;98331.34;10278484;28;20662;-74
2022/03/30 21:49:49;;;;;;;24.50;17.60;;;;;;;8.73;48.78;98325.75;10283956;28;20090;-74
2022/03/30 21:54:51;;;;;;;23.48;17.02;;;;;;;8.70;48.85;98325.16;10273776;28;20425;-74
2022/03/30 21:59:53;;;;;;;25.52;16.92;;;;;;;8.65;48.60;98332.50;10281801;28;20042;-74
2022/03/30 22:04:55;;;;;;;25.40;18.13;;;;;;;8.55;48.91;98335.00;10278160;28;20133;-74
2022/03/30 22:09:57;;;;;;;25.75;16.52;;;;;;;8.61;48.97;98339.72;10274532;28;20117;-74
2022/03/30 22:14:58;;;;;;;24.58;15.88;;;;;;;8.51;48.91;98327.53;10273185;28;20864;-74
2022/03/30 22:20:00;;;;;;;26.70;16.83;;;;;;;8.37;49.02;98327.75;10267974;28;20639;-74
2022/03/30 22:25:03;;;;;;;22.23;15.70;;;;;;;8.15;48.51;98333.75;10268044;28;20326;-74
2022/03/30 22:30:05;;;;;;;21.30;14.65;;;;;;;7.98;48.69;98327.19;10267450;28;20052;-74
2022/03/30 22:40:28;;;;;;;24.08;15.77;;;;;;;7.88;48.91;98323.59;10267821;28;20174;-75
2022/03/30 22:45:30;;;;;;;20.95;14.43;;;;;;;7.56;49.03;98325.13;10255274;28;20117;-74
2022/03/30 22:50:31;;;;;;;20.13;14.02;;;;;;;7.48;48.80;98318.81;10268345;28;20057;-74
2022/03/30 22:55:33;;;;;;;19.98;14.15;;;;;;;7.49;49.35;98331.72;10282785;28;20050;-74
2022/03/30 23:00:36;;;;;;;20.23;14.18;;;;;;;7.61;49.44;98322.22;10267712;28;20142;-74
2022/03/30 23:11:02;;;;;;;21.25;14.00;;;;;;;7.50;49.60;98315.19;10267946;28;20065;-74
2022/03/30 23:16:05;;;;;;;20.48;14.10;;;;;;;7.62;49.92;98285.66;10272764;28;20059;-74
2022/03/30 23:21:07;;;;;;;20.85;13.52;;;;;;;7.65;49.57;98298.44;10287396;28;20105;-74
2022/03/30 23:26:09;;;;;;;21.70;13.65;;;;;;;7.67;49.48;98299.16;10269604;28;20058;-74
2022/03/30 23:31:11;;;;;;;18.70;13.52;;;;;;;7.51;49.34;98303.81;10277014;28;20073;-74
2022/03/30 23:36:13;;;;;;;19.75;14.10;;;;;;;7.49;49.70;98303.09;10270344;28;20050;-74
2022/03/30 23:41:15;;;;;;;20.73;13.65;;;;;;;7.27;49.58;98297.81;10277797;28;20043;-74
2022/03/30 23:46:17;;;;;;;20.67;14.18;;;;;;;7.47;49.66;98298.97;10266822;28;20065;-74